createdAt,value
2018-06-17T00:02:18.691Z,17.60
2018-06-17T00:04:52.480Z,17.60
2018-06-17T00:07:26.434Z,17.60
2018-06-17T00:10:00.479Z,17.60
2018-06-17T00:12:34.578Z,17.50
2018-06-17T00:15:08.696Z,17.50
2018-06-17T00:17:43.165Z,17.50
2018-06-17T00:20:17.100Z,17.50
2018-06-17T00:22:50.995Z,17.40
2018-06-17T00:25:25.112Z,17.40
2018-06-17T00:30:32.866Z,17.40
2018-06-17T00:33:06.612Z,17.50
2018-06-17T00:35:40.978Z,17.50
2018-06-17T00:38:14.828Z,17.50
2018-06-17T00:40:48.802Z,17.50
2018-06-17T00:43:23.108Z,17.50
2018-06-17T00:45:56.974Z,17.50
2018-06-17T00:48:31.099Z,17.40
2018-06-17T00:51:05.185Z,17.50
2018-06-17T00:53:39.180Z,17.50
2018-06-17T00:56:13.100Z,17.40
2018-06-17T00:58:47.006Z,17.40
2018-06-17T01:01:21.011Z,17.40
2018-06-17T01:03:55.048Z,17.40
2018-06-17T01:06:28.994Z,17.40
2018-06-17T01:09:03.475Z,17.30
2018-06-17T01:11:37.395Z,17.30
2018-06-17T01:14:11.168Z,17.30
2018-06-17T01:16:45.100Z,17.20
2018-06-17T01:19:19.008Z,17.20
2018-06-17T01:21:53.170Z,17.20
2018-06-17T01:24:27.183Z,17.20
2018-06-17T01:27:01.156Z,17.20
2018-06-17T01:29:36.035Z,17.10
2018-06-17T01:32:10.245Z,17.10
2018-06-17T01:34:44.224Z,17.00
2018-06-17T01:37:17.918Z,17.00
2018-06-17T01:39:52.425Z,17.00
2018-06-17T01:42:26.208Z,16.90
2018-06-17T01:45:00.602Z,16.90
2018-06-17T01:47:34.674Z,16.80
2018-06-17T01:50:08.483Z,16.80
2018-06-17T01:52:42.265Z,16.80
2018-06-17T01:55:16.464Z,16.80
2018-06-17T01:57:50.554Z,16.70
2018-06-17T02:00:24.828Z,16.70
2018-06-17T02:03:02.980Z,16.70
2018-06-17T02:05:42.683Z,16.80
2018-06-17T02:08:22.635Z,16.80
2018-06-17T02:11:02.044Z,16.70
2018-06-17T02:13:35.863Z,16.80
2018-06-17T02:16:10.030Z,16.80
2018-06-17T02:18:43.691Z,16.80
2018-06-17T02:21:17.649Z,16.80
2018-06-17T02:23:52.248Z,16.70
2018-06-17T02:26:26.073Z,16.70
2018-06-17T02:28:59.968Z,16.70
2018-06-17T02:31:34.012Z,16.70
2018-06-17T02:34:07.990Z,16.70
2018-06-17T02:36:42.024Z,16.70
2018-06-17T02:39:16.105Z,16.70
2018-06-17T02:41:49.941Z,16.60
2018-06-17T02:44:23.944Z,16.70
2018-06-17T02:49:39.007Z,16.60
2018-06-17T02:52:18.611Z,16.60
2018-06-17T02:54:52.733Z,16.50
2018-06-17T02:57:26.851Z,16.50
2018-06-17T03:00:01.067Z,16.40
2018-06-17T03:02:35.134Z,16.50
2018-06-17T03:05:09.061Z,16.40
2018-06-17T03:07:43.262Z,16.40
2018-06-17T03:10:17.169Z,16.40
2018-06-17T03:12:50.968Z,16.40
2018-06-17T03:15:25.612Z,16.40
2018-06-17T03:17:59.624Z,16.40
2018-06-17T03:20:34.223Z,16.30
2018-06-17T03:23:08.315Z,16.30
2018-06-17T03:25:47.694Z,16.30
2018-06-17T03:28:27.328Z,16.30
2018-06-17T03:31:07.061Z,16.30
2018-06-17T03:33:52.133Z,16.30
2018-06-17T03:36:26.121Z,16.30
2018-06-17T03:41:33.880Z,16.30
2018-06-17T03:44:07.815Z,16.20
2018-06-17T03:46:41.776Z,16.20
2018-06-17T03:49:15.712Z,16.20
2018-06-17T03:51:49.849Z,16.20
2018-06-17T03:54:23.661Z,16.10
2018-06-17T03:56:57.934Z,16.10
2018-06-17T03:59:31.908Z,16.10
2018-06-17T04:02:05.945Z,16.10
2018-06-17T04:04:45.606Z,16.00
2018-06-17T04:07:19.513Z,16.00
2018-06-17T04:09:53.599Z,16.00
2018-06-17T04:12:27.762Z,16.00
2018-06-17T04:15:01.451Z,15.90
2018-06-17T04:17:35.378Z,15.90
2018-06-17T04:20:09.163Z,15.90
2018-06-17T04:22:43.034Z,15.90
2018-06-17T04:25:17.149Z,15.80
2018-06-17T04:27:51.060Z,15.80
2018-06-17T04:30:24.859Z,15.80
2018-06-17T04:32:59.224Z,15.80
2018-06-17T04:35:32.979Z,15.80
2018-06-17T04:38:06.804Z,15.80
2018-06-17T04:40:40.914Z,15.80
2018-06-17T04:43:15.404Z,15.80
2018-06-17T04:45:49.520Z,15.90
2018-06-17T04:48:24.460Z,15.90
2018-06-17T04:50:58.231Z,15.90
2018-06-17T04:53:32.038Z,15.90
2018-06-17T04:56:06.100Z,15.90
2018-06-17T04:58:39.849Z,15.90
2018-06-17T05:01:13.741Z,16.00
2018-06-17T05:03:48.416Z,16.00
2018-06-17T05:06:22.319Z,16.10
2018-06-17T05:08:56.360Z,16.10
2018-06-17T05:11:30.800Z,16.20
2018-06-17T05:14:05.043Z,16.20
2018-06-17T05:16:38.859Z,16.20
2018-06-17T05:19:12.943Z,16.20
2018-06-17T05:21:46.915Z,16.30
2018-06-17T05:24:21.074Z,16.30
2018-06-17T05:26:54.916Z,16.30
2018-06-17T05:29:28.694Z,16.40
2018-06-17T05:32:03.085Z,16.50
2018-06-17T05:34:36.988Z,16.60
2018-06-17T05:37:10.891Z,16.60
2018-06-17T05:39:44.860Z,16.60
2018-06-17T05:42:18.754Z,16.70
2018-06-17T05:44:52.827Z,16.70
2018-06-17T05:47:26.851Z,16.80
2018-06-17T05:50:00.919Z,16.90
2018-06-17T05:52:34.891Z,17.00
2018-06-17T05:55:08.824Z,17.00
2018-06-17T05:57:42.569Z,17.10
2018-06-17T06:00:16.512Z,17.20
2018-06-17T06:02:50.500Z,17.20
2018-06-17T06:05:24.402Z,17.20
2018-06-17T06:07:58.879Z,17.30
2018-06-17T06:10:33.000Z,17.50
2018-06-17T06:13:06.855Z,17.60
2018-06-17T06:15:41.023Z,17.70
2018-06-17T06:18:14.900Z,17.80
2018-06-17T06:20:49.079Z,17.90
2018-06-17T06:23:22.901Z,18.00
2018-06-17T06:25:57.105Z,18.00
2018-06-17T06:28:31.047Z,18.10
2018-06-17T06:31:05.378Z,18.10
2018-06-17T06:33:39.956Z,18.00
2018-06-17T06:36:13.873Z,18.00
2018-06-17T06:38:47.940Z,18.00
2018-06-17T06:41:21.846Z,17.90
2018-06-17T06:43:56.607Z,17.80
2018-06-17T06:46:30.404Z,17.80
2018-06-17T06:49:04.275Z,17.80
2018-06-17T06:51:38.265Z,17.80
2018-06-17T06:54:12.479Z,17.80
2018-06-17T06:56:46.526Z,17.80
2018-06-17T06:59:20.308Z,17.90
2018-06-17T07:02:05.642Z,17.90
2018-06-17T07:04:51.183Z,18.00
2018-06-17T07:07:36.705Z,18.00
2018-06-17T07:10:23.112Z,18.00
2018-06-17T07:12:57.011Z,18.00
2018-06-17T07:15:42.365Z,18.10
2018-06-17T07:18:31.288Z,18.30
2018-06-17T07:21:05.487Z,18.40
2018-06-17T07:23:39.658Z,18.40
2018-06-17T07:26:30.313Z,18.50
2018-06-17T07:29:15.946Z,18.60
2018-06-17T07:31:49.776Z,18.70
2018-06-17T07:34:23.992Z,18.80
2018-06-17T07:36:58.431Z,18.90
2018-06-17T07:41:42.134Z,19.10
2018-06-17T07:44:15.909Z,19.20
2018-06-17T07:46:49.996Z,19.20
2018-06-17T07:49:37.550Z,19.20
2018-06-17T07:52:23.820Z,19.20
2018-06-17T07:54:58.164Z,19.00
2018-06-17T07:57:33.237Z,18.80
2018-06-17T08:00:07.496Z,18.80
2018-06-17T08:02:41.457Z,18.90
2018-06-17T08:05:15.622Z,19.00
2018-06-17T08:07:49.729Z,19.00
2018-06-17T08:10:23.575Z,19.10
2018-06-17T08:12:57.490Z,19.30
2018-06-17T08:15:31.380Z,19.40
2018-06-17T08:18:05.539Z,19.50
2018-06-17T08:20:39.756Z,19.60
2018-06-17T08:23:14.063Z,19.80
2018-06-17T08:25:48.079Z,19.90
2018-06-17T08:28:22.206Z,20.00
2018-06-17T08:30:56.336Z,20.10
2018-06-17T08:33:30.496Z,20.20
2018-06-17T08:36:04.435Z,20.20
2018-06-17T08:38:38.434Z,20.20
2018-06-17T08:41:12.815Z,20.20
2018-06-17T08:43:46.911Z,20.20
2018-06-17T08:46:21.176Z,20.20
2018-06-17T08:48:54.987Z,20.20
2018-06-17T08:51:29.724Z,20.10
2018-06-17T08:54:03.901Z,20.10
2018-06-17T08:56:38.289Z,20.10
2018-06-17T08:59:12.474Z,20.00
2018-06-17T09:01:46.400Z,20.00
2018-06-17T09:06:54.514Z,20.20
2018-06-17T09:09:28.371Z,20.20
2018-06-17T09:12:02.306Z,20.30
2018-06-17T09:14:36.555Z,20.40
2018-06-17T09:17:10.910Z,20.50
2018-06-17T09:19:51.743Z,20.50
2018-06-17T09:22:25.602Z,20.60
2018-06-17T09:25:03.510Z,20.50
2018-06-17T09:27:37.724Z,20.30
2018-06-17T09:30:11.975Z,20.30
2018-06-17T09:32:46.021Z,20.30
2018-06-17T09:35:20.404Z,20.50
2018-06-17T09:37:54.459Z,20.60
2018-06-17T09:40:28.666Z,20.80
2018-06-17T09:43:02.955Z,20.90
2018-06-17T09:45:36.755Z,20.90
2018-06-17T09:48:10.760Z,20.90
2018-06-17T09:50:44.991Z,21.00
2018-06-17T09:53:19.431Z,21.00
2018-06-17T10:01:01.102Z,21.00
2018-06-17T10:03:35.265Z,21.00
2018-06-17T10:06:09.375Z,20.90
2018-06-17T10:08:43.500Z,20.80
2018-06-17T10:11:18.210Z,20.80
2018-06-17T10:13:52.405Z,20.90
2018-06-17T10:16:26.635Z,20.90
2018-06-17T10:19:00.688Z,20.80
2018-06-17T10:21:35.031Z,20.70
2018-06-17T10:26:42.962Z,20.70
2018-06-17T10:31:51.065Z,20.80
2018-06-17T10:36:58.657Z,21.00
2018-06-17T10:39:32.847Z,21.20
2018-06-17T10:42:06.972Z,21.30
2018-06-17T10:44:41.011Z,21.40
2018-06-17T10:47:15.555Z,21.50
2018-06-17T10:49:49.904Z,21.60
2018-06-17T10:52:24.325Z,21.50
2018-06-17T10:54:58.462Z,21.50
2018-06-17T10:57:32.629Z,21.40
2018-06-17T11:00:07.641Z,21.50
2018-06-17T11:02:41.694Z,21.70
2018-06-17T11:05:15.843Z,21.80
2018-06-17T11:10:24.292Z,22.00
2018-06-17T11:12:58.567Z,22.10
2018-06-17T11:15:32.626Z,22.30
2018-06-17T11:18:07.149Z,22.20
2018-06-17T11:20:41.305Z,22.30
2018-06-17T11:23:15.450Z,22.20
2018-06-17T11:25:49.541Z,22.30
2018-06-17T11:28:23.871Z,22.20
2018-06-17T11:30:59.585Z,22.10
2018-06-17T11:33:33.739Z,22.00
2018-06-17T11:36:07.750Z,21.80
2018-06-17T11:38:42.116Z,21.80
2018-06-17T11:41:16.502Z,21.80
2018-06-17T11:43:50.686Z,21.80
2018-06-17T11:46:29.430Z,21.80
2018-06-17T11:49:03.416Z,21.80
2018-06-17T11:51:38.631Z,21.80
2018-06-17T11:54:12.428Z,21.80
2018-06-17T11:56:46.786Z,21.80
2018-06-17T11:59:20.661Z,21.80
2018-06-17T12:01:54.836Z,21.90
2018-06-17T12:04:28.923Z,22.10
2018-06-17T12:07:02.976Z,22.20
2018-06-17T12:09:37.296Z,22.30
2018-06-17T12:12:11.459Z,22.40
2018-06-17T12:14:46.465Z,22.30
2018-06-17T12:17:20.624Z,22.10
2018-06-17T12:19:54.724Z,22.00
2018-06-17T12:22:29.023Z,22.00
2018-06-17T12:25:03.105Z,22.10
2018-06-17T12:27:37.054Z,22.10
2018-06-17T12:30:11.150Z,22.10
2018-06-17T12:32:45.457Z,22.20
2018-06-17T12:35:19.590Z,22.10
2018-06-17T12:37:53.695Z,22.10
2018-06-17T12:40:28.044Z,22.10
2018-06-17T12:43:02.199Z,21.90
2018-06-17T12:45:36.235Z,22.00
2018-06-17T12:48:10.266Z,22.10
2018-06-17T12:50:44.172Z,22.40
2018-06-17T12:53:18.052Z,22.60
2018-06-17T12:55:52.907Z,22.90
2018-06-17T12:58:27.316Z,23.30
2018-06-17T13:01:01.527Z,23.50
2018-06-17T13:06:09.692Z,23.10
2018-06-17T13:08:43.808Z,22.70
2018-06-17T13:11:17.893Z,22.40
2018-06-17T13:13:51.854Z,22.30
2018-06-17T13:16:30.665Z,22.10
2018-06-17T13:19:05.248Z,22.10
2018-06-17T13:21:39.167Z,22.00
2018-06-17T13:24:13.272Z,22.00
2018-06-17T13:26:47.269Z,21.90
2018-06-17T13:29:21.719Z,21.80
2018-06-17T13:31:55.768Z,21.80
2018-06-17T13:34:29.968Z,21.70
2018-06-17T13:37:04.316Z,21.70
2018-06-17T13:39:38.549Z,21.70
2018-06-17T13:42:12.435Z,21.60
2018-06-17T13:44:46.586Z,21.50
2018-06-17T13:47:20.624Z,21.60
2018-06-17T13:49:54.808Z,21.60
2018-06-17T13:52:28.921Z,21.80
2018-06-17T13:55:02.966Z,21.80
2018-06-17T13:57:37.684Z,21.80
2018-06-17T14:00:11.730Z,21.60
2018-06-17T14:02:45.673Z,21.50
2018-06-17T14:05:19.865Z,21.30
2018-06-17T14:07:54.394Z,21.10
2018-06-17T14:10:28.525Z,20.90
2018-06-17T14:13:02.359Z,20.70
2018-06-17T14:15:36.664Z,20.70
2018-06-17T14:18:11.181Z,20.70
2018-06-17T14:20:45.205Z,20.70
2018-06-17T14:23:19.471Z,20.70
2018-06-17T14:25:53.344Z,20.60
2018-06-17T14:28:27.348Z,20.60
2018-06-17T14:31:01.375Z,20.50
2018-06-17T14:33:35.764Z,20.40
2018-06-17T14:36:10.059Z,20.40
2018-06-17T14:38:43.880Z,20.40
2018-06-17T14:41:19.084Z,20.50
2018-06-17T14:43:58.839Z,20.40
2018-06-17T14:46:38.442Z,20.60
2018-06-17T14:49:18.210Z,20.90
2018-06-17T14:51:57.695Z,21.30
2018-06-17T14:54:31.559Z,21.60
2018-06-17T14:57:05.762Z,22.00
2018-06-17T14:59:40.701Z,22.30
2018-06-17T15:02:14.725Z,22.30
2018-06-17T15:04:49.171Z,22.30
2018-06-17T15:07:23.722Z,22.10
2018-06-17T15:09:57.816Z,22.10
2018-06-17T15:12:31.759Z,22.00
2018-06-17T15:15:05.721Z,22.00
2018-06-17T15:17:39.983Z,22.00
2018-06-17T15:20:14.225Z,21.90
2018-06-17T15:22:48.066Z,21.80
2018-06-17T15:25:22.210Z,21.60
2018-06-17T15:27:56.572Z,21.50
2018-06-17T15:30:30.598Z,21.50
2018-06-17T15:33:10.469Z,21.40
2018-06-17T15:35:50.107Z,21.50
2018-06-17T15:38:29.783Z,21.70
2018-06-17T15:41:09.512Z,21.70
2018-06-17T15:43:43.461Z,21.90
2018-06-17T15:46:17.675Z,22.10
2018-06-17T15:51:25.895Z,22.40
2018-06-17T15:53:59.890Z,22.60
2018-06-17T15:56:33.936Z,22.70
2018-06-17T15:59:08.522Z,22.50
2018-06-17T16:04:16.869Z,21.90
2018-06-17T16:06:53.345Z,21.70
2018-06-17T16:09:27.324Z,21.50
2018-06-17T16:12:06.870Z,21.40
2018-06-17T16:14:46.505Z,21.30
2018-06-17T16:17:26.225Z,21.20
2018-06-17T16:21:08.752Z,21.20
2018-06-17T16:23:43.379Z,21.10
2018-06-17T16:26:17.695Z,20.90
2018-06-17T16:28:51.699Z,20.80
2018-06-17T16:31:25.777Z,20.80
2018-06-17T16:33:59.620Z,20.70
2018-06-17T16:36:33.806Z,20.70
2018-06-17T16:41:43.490Z,20.60
2018-06-17T16:44:17.493Z,20.50
2018-06-17T16:46:51.790Z,20.50
2018-06-17T16:49:25.861Z,20.40
2018-06-17T16:54:44.781Z,20.40
2018-06-17T16:58:26.417Z,20.30
2018-06-17T17:01:00.679Z,20.30
2018-06-17T17:06:09.037Z,20.30
2018-06-17T17:08:44.567Z,20.20
2018-06-17T17:11:18.851Z,20.20
2018-06-17T17:13:52.795Z,20.10
2018-06-17T17:16:27.056Z,20.10
2018-06-17T17:19:01.202Z,20.10
2018-06-17T17:21:35.451Z,20.10
2018-06-17T17:24:09.594Z,20.00
2018-06-17T17:29:18.441Z,20.00
2018-06-17T17:31:58.230Z,19.90
2018-06-17T17:34:38.025Z,19.90
2018-06-17T17:38:15.386Z,19.90
2018-06-17T17:40:52.907Z,20.00
2018-06-17T17:43:27.435Z,20.00
2018-06-17T17:46:07.236Z,19.90
2018-06-17T17:48:42.156Z,19.80
2018-06-17T17:53:50.421Z,19.80
2018-06-17T17:56:24.314Z,19.80
2018-06-17T17:58:58.352Z,19.80
2018-06-17T18:04:06.356Z,19.70
2018-06-17T18:06:40.712Z,19.70
2018-06-17T18:09:15.491Z,19.60
2018-06-17T18:17:02.381Z,19.50
2018-06-17T18:19:40.512Z,19.40
2018-06-17T18:22:14.570Z,19.40
2018-06-17T18:24:54.614Z,19.30
2018-06-17T18:27:38.702Z,19.30
2018-06-17T18:30:19.599Z,19.20
2018-06-17T18:32:59.390Z,19.20
2018-06-17T18:35:39.931Z,19.10
2018-06-17T18:38:13.921Z,19.20
2018-06-17T18:43:23.395Z,19.00
2018-06-17T18:45:57.592Z,19.00
2018-06-17T18:48:32.139Z,19.00
2018-06-17T18:51:06.587Z,18.90
2018-06-17T18:53:41.226Z,18.80
2018-06-17T18:56:15.216Z,18.80
2018-06-17T19:01:23.657Z,18.80
2018-06-17T19:03:57.945Z,18.70
2018-06-17T19:06:32.204Z,18.70
2018-06-17T19:09:12.980Z,18.60
2018-06-17T19:11:52.662Z,18.60
2018-06-17T19:14:32.306Z,18.50
2018-06-17T19:17:12.283Z,18.50
2018-06-17T19:19:47.150Z,18.40
2018-06-17T19:22:21.816Z,18.30
2018-06-17T19:24:56.015Z,18.20
2018-06-17T19:27:30.791Z,18.20
2018-06-17T19:30:08.274Z,18.10
2018-06-17T19:32:42.572Z,18.00
2018-06-17T19:35:16.608Z,18.00
2018-06-17T19:37:50.661Z,18.00
2018-06-17T19:40:24.709Z,17.90
2018-06-17T19:42:59.534Z,17.80
2018-06-17T19:45:34.326Z,17.80
2018-06-17T19:48:08.638Z,17.80
2018-06-17T19:50:48.070Z,17.70
2018-06-17T19:53:28.130Z,17.60
2018-06-17T19:56:07.761Z,17.60
2018-06-17T19:58:47.021Z,17.50
2018-06-17T20:01:21.280Z,17.50
2018-06-17T20:03:55.186Z,17.40
2018-06-17T20:06:29.167Z,17.40
2018-06-17T20:09:05.010Z,17.30
2018-06-17T20:11:39.335Z,17.30
2018-06-17T20:14:13.282Z,17.30
2018-06-17T20:16:47.705Z,17.30
2018-06-17T20:19:21.769Z,17.20
2018-06-17T20:21:56.186Z,17.20
2018-06-17T20:24:30.716Z,17.20
2018-06-17T20:27:05.016Z,17.20
2018-06-17T20:29:38.871Z,17.20
2018-06-17T20:32:18.625Z,17.20
2018-06-17T20:37:37.434Z,17.10
2018-06-17T20:41:15.016Z,17.00
2018-06-17T20:43:51.307Z,17.00
2018-06-17T20:46:25.535Z,16.90
2018-06-17T20:49:00.109Z,16.90
2018-06-17T20:51:34.839Z,16.90
2018-06-17T20:54:08.943Z,16.80
2018-06-17T20:56:43.059Z,16.80
2018-06-17T20:59:17.634Z,16.80
2018-06-17T21:01:51.768Z,16.70
2018-06-17T21:04:26.515Z,16.70
2018-06-17T21:07:00.395Z,16.70
2018-06-17T21:09:34.425Z,16.70
2018-06-17T21:12:08.528Z,16.60
2018-06-17T21:14:42.835Z,16.60
2018-06-17T21:17:16.705Z,16.60
2018-06-17T21:19:56.224Z,16.50
2018-06-17T21:22:35.843Z,16.50
2018-06-17T21:25:15.366Z,16.50
2018-06-17T21:27:51.158Z,16.50
2018-06-17T21:30:25.196Z,16.40
2018-06-17T21:32:59.403Z,16.40
2018-06-17T21:35:33.371Z,16.30
2018-06-17T21:38:07.363Z,16.30
2018-06-17T21:40:41.357Z,16.20
2018-06-17T21:43:15.280Z,16.20
2018-06-17T21:45:49.490Z,16.20
2018-06-17T21:48:23.334Z,16.10
2018-06-17T21:53:31.589Z,16.00
2018-06-17T21:56:05.634Z,16.00
2018-06-17T21:58:45.363Z,16.00
2018-06-17T22:01:19.749Z,16.00
2018-06-17T22:09:18.360Z,15.90
2018-06-17T22:11:57.904Z,15.90
2018-06-17T22:14:37.575Z,16.00
2018-06-17T22:17:17.249Z,16.00
2018-06-17T22:19:50.934Z,16.00
2018-06-17T22:22:24.973Z,16.00
2018-06-17T22:24:59.457Z,16.00
2018-06-17T22:27:33.400Z,16.10
2018-06-17T22:30:07.478Z,16.00
2018-06-17T22:32:41.400Z,16.00
2018-06-17T22:35:15.562Z,16.10
2018-06-17T22:37:49.550Z,16.10
2018-06-17T22:40:23.627Z,16.10
2018-06-17T22:42:58.343Z,16.10
2018-06-17T22:48:05.769Z,16.00
2018-06-17T22:50:39.937Z,16.10
2018-06-17T22:53:25.018Z,16.00
2018-06-17T22:55:59.715Z,16.10
2018-06-17T22:58:39.536Z,16.10
